Raleigh, North Dakota
Current Conditions -  °F | °C
As of 11:15 AM on Sunday 25 Jan 2015 (Local Time) from KY19 Reporting Station
Haze Haze  
Wind Chill: -3°   Ceiling: 1500
Heat Index:   Visibility: 6mi
Dew Point:   Wind: 8mph
Humidity: 93%   Direction: 260°W
Pressure: 29.99"   Gusts: NA
Location:  46.36°N, 101.31°W
Report Text: KY19 251815Z AUTO 26007KT 6SM BR BKN015 01/00 A2999 RMK AO2
Loading
Personal Weather Stations






























Interactive Weather Map New forecast layout! Learn more

10-Day Weather Forecast

Advertisements
Track Severe Weather on mobile